createdAt,value
2023-04-24T00:00:46.137Z,99714.09
2023-04-24T00:03:15.211Z,99719.34
2023-04-24T00:05:45.325Z,99711.19
2023-04-24T00:08:13.840Z,99727.09
2023-04-24T00:10:43.116Z,99722.28
2023-04-24T00:13:11.674Z,99723.84
2023-04-24T00:15:40.465Z,99719.13
2023-04-24T00:18:09.013Z,99714.94
2023-04-24T00:20:37.666Z,99709.97
2023-04-24T00:23:07.547Z,99712.19
2023-04-24T00:25:36.251Z,99715.34
2023-04-24T00:28:04.868Z,99712.88
2023-04-24T00:30:33.610Z,99715.22
2023-04-24T00:33:02.180Z,99720.78
2023-04-24T00:35:30.767Z,99709.97
2023-04-24T00:37:59.321Z,99719.66
2023-04-24T00:40:30.278Z,99714.69
2023-04-24T00:42:59.482Z,99716.44
2023-04-24T00:45:28.045Z,99719.00
2023-04-24T00:47:56.686Z,99722.88
2023-04-24T00:50:26.195Z,99727.78
2023-04-24T00:52:54.921Z,99732.19
2023-04-24T00:55:23.491Z,99726.00
2023-04-24T00:57:53.794Z,99733.25
2023-04-24T01:00:22.591Z,99727.72
2023-04-24T01:02:52.992Z,99734.66
2023-04-24T01:05:21.690Z,99722.69
2023-04-24T01:07:50.552Z,99729.84
2023-04-24T01:10:21.324Z,99728.44
2023-04-24T01:12:49.909Z,99730.63
2023-04-24T01:15:20.271Z,99721.66
2023-04-24T01:17:48.839Z,99737.72
2023-04-24T01:20:17.988Z,99727.59
2023-04-24T01:22:47.955Z,99725.22
2023-04-24T01:25:16.495Z,99728.44
2023-04-24T01:27:45.702Z,99732.69
2023-04-24T01:30:15.700Z,99730.47
2023-04-24T01:32:45.938Z,99725.44
2023-04-24T01:35:14.505Z,99722.28
2023-04-24T01:37:43.067Z,99730.53
2023-04-24T01:40:13.531Z,99728.75
2023-04-24T01:42:44.084Z,99730.31
2023-04-24T01:45:14.795Z,99721.34
2023-04-24T01:47:43.864Z,99733.44
2023-04-24T01:50:12.853Z,99731.28
2023-04-24T01:52:41.472Z,99737.34
2023-04-24T01:55:12.337Z,99738.97
2023-04-24T01:57:41.826Z,99748.91
2023-04-24T02:00:13.112Z,99729.16
2023-04-24T02:02:44.243Z,99741.94
2023-04-24T02:05:14.708Z,99745.72
2023-04-24T02:07:43.272Z,99741.50
2023-04-24T02:10:13.785Z,99746.00
2023-04-24T02:12:42.318Z,99746.66
2023-04-24T02:15:11.777Z,99751.16
2023-04-24T02:17:40.544Z,99737.66
2023-04-24T02:20:10.235Z,99747.78
2023-04-24T02:22:38.781Z,99744.94
2023-04-24T02:25:09.034Z,99739.81
2023-04-24T02:27:38.981Z,99732.53
2023-04-24T02:30:09.203Z,99722.81
2023-04-24T02:32:37.814Z,99724.38
2023-04-24T02:35:07.068Z,99729.41
2023-04-24T02:37:35.659Z,99721.75
2023-04-24T02:40:06.291Z,99723.53
2023-04-24T02:42:34.870Z,99716.72
2023-04-24T02:45:06.087Z,99735.31
2023-04-24T02:47:34.720Z,99737.13
2023-04-24T02:50:03.880Z,99727.81
2023-04-24T02:52:32.455Z,99732.44
2023-04-24T02:55:00.979Z,99736.69
2023-04-24T02:57:29.517Z,99738.13
2023-04-24T02:59:58.018Z,99740.13
2023-04-24T03:02:28.150Z,99745.28
2023-04-24T03:04:58.089Z,99744.28
2023-04-24T03:07:26.624Z,99743.00
2023-04-24T03:09:55.223Z,99748.44
2023-04-24T03:12:24.891Z,99747.13
2023-04-24T03:14:53.529Z,99763.34
2023-04-24T03:17:22.132Z,99755.97
2023-04-24T03:19:52.081Z,99753.84
2023-04-24T03:22:20.595Z,99762.03
2023-04-24T03:24:49.601Z,99757.53
2023-04-24T03:27:18.135Z,99761.63
2023-04-24T03:29:46.689Z,99758.41
2023-04-24T03:32:15.426Z,99763.16
2023-04-24T03:34:44.010Z,99764.28
2023-04-24T03:37:13.879Z,99766.47
2023-04-24T03:39:42.711Z,99766.59
2023-04-24T03:42:11.468Z,99763.78
2023-04-24T03:44:40.076Z,99763.00
2023-04-24T03:47:08.598Z,99761.81
2023-04-24T03:49:37.775Z,99762.63
2023-04-24T03:52:06.337Z,99759.47
2023-04-24T03:54:36.309Z,99760.94
2023-04-24T03:57:05.738Z,99763.41
2023-04-24T03:59:34.336Z,99771.31
2023-04-24T04:02:02.965Z,99766.34
2023-04-24T04:04:31.895Z,99772.84
2023-04-24T04:07:02.156Z,99764.31
2023-04-24T04:09:30.774Z,99764.63
2023-04-24T04:12:01.526Z,99765.78
2023-04-24T04:14:30.629Z,99770.78
2023-04-24T04:16:59.201Z,99776.69
2023-04-24T04:19:27.790Z,99772.94
2023-04-24T04:21:57.252Z,99781.03
2023-04-24T04:24:27.582Z,99783.13
2023-04-24T04:26:59.185Z,99778.28
2023-04-24T04:29:29.116Z,99788.72
2023-04-24T04:31:57.702Z,99779.94
2023-04-24T04:34:26.409Z,99783.13
2023-04-24T04:36:54.943Z,99783.81
2023-04-24T04:39:23.506Z,99788.56
2023-04-24T04:41:52.015Z,99790.44
2023-04-24T04:44:20.581Z,99785.94
2023-04-24T04:46:51.099Z,99792.25
2023-04-24T04:49:19.785Z,99796.88
2023-04-24T04:51:48.318Z,99789.47
2023-04-24T04:54:17.135Z,99796.50
2023-04-24T04:56:45.693Z,99790.81
2023-04-24T04:59:14.430Z,99790.78
2023-04-24T05:01:43.232Z,99799.75
2023-04-24T05:04:13.365Z,99789.91
2023-04-24T05:06:42.169Z,99802.88
2023-04-24T05:09:10.713Z,99807.50
2023-04-24T05:11:39.258Z,99815.22
2023-04-24T05:14:07.802Z,99802.19
2023-04-24T05:16:37.970Z,99797.28
2023-04-24T05:19:06.775Z,99802.09
2023-04-24T05:21:36.655Z,99807.84
2023-04-24T05:24:05.784Z,99798.69
2023-04-24T05:26:34.388Z,99802.69
2023-04-24T05:29:03.312Z,99801.97
2023-04-24T05:31:32.044Z,99798.50
2023-04-24T05:34:00.729Z,99799.00
2023-04-24T05:36:29.288Z,99799.63
2023-04-24T05:38:59.185Z,99810.88
2023-04-24T05:41:27.742Z,99802.66
2023-04-24T05:43:56.361Z,99805.97
2023-04-24T05:46:25.010Z,99812.84
2023-04-24T05:48:53.609Z,99808.81
2023-04-24T05:51:22.146Z,99815.22
2023-04-24T05:53:50.666Z,99809.03
2023-04-24T05:56:21.433Z,99815.28
2023-04-24T05:58:50.025Z,99807.09
2023-04-24T06:01:19.303Z,99806.66
2023-04-24T06:03:47.934Z,99817.16
2023-04-24T06:06:17.013Z,99796.66
2023-04-24T06:08:46.473Z,99823.50
2023-04-24T06:11:15.372Z,99815.78
2023-04-24T06:13:45.351Z,99815.28
2023-04-24T06:16:14.124Z,99815.00
2023-04-24T06:18:42.786Z,99815.63
2023-04-24T06:21:11.342Z,99813.19
2023-04-24T06:23:39.858Z,99812.63
2023-04-24T06:26:08.414Z,99813.09
2023-04-24T06:28:37.183Z,99818.03
2023-04-24T06:31:07.238Z,99805.00
2023-04-24T06:33:35.788Z,99817.13
2023-04-24T06:36:05.041Z,99828.63
2023-04-24T06:38:33.605Z,99811.78
2023-04-24T06:41:02.134Z,99816.72
2023-04-24T06:43:30.646Z,99814.13
2023-04-24T06:46:00.193Z,99820.06
2023-04-24T06:48:30.084Z,99825.72
2023-04-24T06:50:58.646Z,99831.38
2023-04-24T06:53:27.184Z,99815.50
2023-04-24T06:56:01.257Z,99833.88
2023-04-24T06:58:29.836Z,99815.88
2023-04-24T07:00:58.423Z,99814.00
2023-04-24T07:03:27.087Z,99813.00
2023-04-24T07:05:58.899Z,99802.31
2023-04-24T07:08:27.471Z,99815.75
2023-04-24T07:10:57.131Z,99809.19
2023-04-24T07:13:25.795Z,99812.88
2023-04-24T07:15:56.179Z,99822.41
2023-04-24T07:18:24.972Z,99813.78
2023-04-24T07:20:53.534Z,99829.59
2023-04-24T07:23:23.432Z,99825.72
2023-04-24T07:25:52.101Z,99828.97
2023-04-24T07:28:20.648Z,99841.44
2023-04-24T07:30:49.190Z,99837.97
2023-04-24T07:33:17.773Z,99833.56
2023-04-24T07:35:46.414Z,99836.00
2023-04-24T07:38:15.186Z,99835.16
2023-04-24T07:40:46.261Z,99825.13
2023-04-24T07:43:16.690Z,99837.16
2023-04-24T07:45:45.381Z,99836.91
2023-04-24T07:48:15.876Z,99844.94
2023-04-24T07:50:44.405Z,99839.41
2023-04-24T07:53:13.143Z,99851.59
2023-04-24T07:55:41.698Z,99850.81
2023-04-24T07:58:11.770Z,99858.28
2023-04-24T08:00:40.426Z,99854.28
2023-04-24T08:03:09.201Z,99858.94
2023-04-24T08:05:39.439Z,99853.78
2023-04-24T08:08:09.519Z,99847.84
2023-04-24T08:10:38.197Z,99859.94
2023-04-24T08:13:06.718Z,99862.38
2023-04-24T08:15:36.832Z,99860.50
2023-04-24T08:18:05.832Z,99876.97
2023-04-24T08:20:34.584Z,99876.16
2023-04-24T08:23:03.143Z,99867.94
2023-04-24T08:25:31.689Z,99887.84
2023-04-24T08:28:00.218Z,99883.41
2023-04-24T08:30:28.972Z,99901.47
2023-04-24T08:32:58.938Z,99909.31
2023-04-24T08:35:27.596Z,99923.28
2023-04-24T08:37:56.248Z,99929.03
2023-04-24T08:40:30.079Z,99938.06
2023-04-24T08:42:59.054Z,99935.38
2023-04-24T08:45:27.666Z,99953.31
2023-04-24T08:47:59.794Z,99952.19
2023-04-24T08:50:28.377Z,99965.09
2023-04-24T08:52:58.034Z,99952.81
2023-04-24T08:55:27.316Z,99966.00
2023-04-24T08:57:56.938Z,99976.78
2023-04-24T09:00:25.550Z,99975.56
2023-04-24T09:02:56.388Z,99976.91
2023-04-24T09:05:28.431Z,99994.22
2023-04-24T09:07:58.316Z,100008.03
2023-04-24T09:10:29.109Z,100017.47
2023-04-24T09:12:59.192Z,100028.00
2023-04-24T09:15:28.095Z,100024.56
2023-04-24T09:17:56.615Z,100027.25
2023-04-24T09:20:26.555Z,100055.13
2023-04-24T09:22:57.332Z,100061.84
2023-04-24T09:25:32.946Z,100051.16
2023-04-24T09:28:04.471Z,100070.44
2023-04-24T09:30:33.152Z,100070.53
2023-04-24T09:33:14.891Z,100083.50
2023-04-24T09:35:50.526Z,100096.47
2023-04-24T09:38:19.146Z,100106.28
2023-04-24T09:40:47.669Z,100117.53
2023-04-24T09:43:16.246Z,100111.81
2023-04-24T09:45:44.798Z,100125.72
2023-04-24T09:48:13.403Z,100122.50
2023-04-24T09:50:47.723Z,100141.81
2023-04-24T09:53:17.626Z,100146.88
2023-04-24T09:55:49.890Z,100157.13
2023-04-24T09:58:18.433Z,100152.72
2023-04-24T10:00:48.883Z,100165.31
2023-04-24T10:03:20.072Z,100163.19
2023-04-24T10:05:49.268Z,100180.78
2023-04-24T10:08:19.227Z,100176.69
2023-04-24T10:10:48.494Z,100175.00
2023-04-24T10:13:17.715Z,100184.53
2023-04-24T10:15:48.392Z,100185.75
2023-04-24T10:18:17.826Z,100200.22
2023-04-24T10:20:47.066Z,100202.31
2023-04-24T10:23:15.917Z,100198.00
2023-04-24T10:25:47.000Z,100207.13
2023-04-24T10:28:16.633Z,100212.69
2023-04-24T10:30:47.512Z,100214.75
2023-04-24T10:33:16.889Z,100221.28
2023-04-24T10:35:50.036Z,100225.56
2023-04-24T10:38:25.241Z,100222.41
2023-04-24T10:41:09.705Z,100226.78
2023-04-24T10:43:38.430Z,100237.56
2023-04-24T10:46:09.309Z,100231.44
2023-04-24T10:48:38.332Z,100240.47
2023-04-24T10:51:06.899Z,100249.50
2023-04-24T10:53:37.969Z,100250.91
2023-04-24T10:56:10.709Z,100249.66
2023-04-24T10:58:41.686Z,100254.59
2023-04-24T11:01:10.358Z,100262.47
2023-04-24T11:03:42.936Z,100260.78
2023-04-24T11:06:12.204Z,100264.31
2023-04-24T11:08:44.476Z,100277.75
2023-04-24T11:11:16.293Z,100274.66
2023-04-24T11:14:11.905Z,100280.66
2023-04-24T11:16:53.097Z,100279.97
2023-04-24T11:19:25.930Z,100293.97
2023-04-24T11:22:02.481Z,100286.50
2023-04-24T11:24:33.879Z,100298.41
2023-04-24T11:27:09.981Z,100297.31
2023-04-24T11:29:46.619Z,100303.16
2023-04-24T11:32:28.661Z,100309.13
2023-04-24T11:34:58.552Z,100313.97
2023-04-24T11:37:29.244Z,100315.22
2023-04-24T11:39:59.588Z,100319.38
2023-04-24T11:42:35.387Z,100315.72
2023-04-24T11:45:04.707Z,100322.25
2023-04-24T11:47:35.010Z,100326.91
2023-04-24T11:50:04.525Z,100324.47
2023-04-24T11:52:33.665Z,100332.75
2023-04-24T11:55:02.881Z,100337.19
2023-04-24T11:57:35.350Z,100337.09
2023-04-24T12:00:05.737Z,100344.81
2023-04-24T12:02:35.575Z,100339.88
2023-04-24T12:05:06.132Z,100351.91
2023-04-24T12:07:44.166Z,100359.31
2023-04-24T12:10:13.202Z,100351.59
2023-04-24T12:12:43.153Z,100347.41
2023-04-24T12:15:13.489Z,100361.22
2023-04-24T12:17:44.761Z,100382.94
2023-04-24T12:20:15.270Z,100375.25
2023-04-24T12:22:47.991Z,100385.28
2023-04-24T12:25:17.435Z,100379.22
2023-04-24T12:27:48.394Z,100383.72
2023-04-24T12:30:18.261Z,100399.88
2023-04-24T12:32:48.718Z,100395.19
2023-04-24T12:35:22.691Z,100385.53
2023-04-24T12:37:51.702Z,100392.81
2023-04-24T12:40:22.180Z,100391.34
2023-04-24T12:42:54.066Z,100405.41
2023-04-24T12:45:24.890Z,100404.41
2023-04-24T12:47:55.286Z,100404.44
2023-04-24T12:50:23.918Z,100412.69
2023-04-24T12:52:52.461Z,100414.53
2023-04-24T12:55:20.988Z,100408.00
2023-04-24T12:57:54.898Z,100423.09
2023-04-24T13:00:23.848Z,100412.91
2023-04-24T13:02:52.956Z,100419.16
2023-04-24T13:05:25.180Z,100419.44
2023-04-24T13:07:54.708Z,100437.78
2023-04-24T13:10:24.758Z,100433.19
2023-04-24T13:12:55.694Z,100439.41
2023-04-24T13:15:26.382Z,100439.88
2023-04-24T13:17:55.621Z,100438.41
2023-04-24T13:20:25.015Z,100445.94
2023-04-24T13:22:54.057Z,100444.78
2023-04-24T13:25:24.996Z,100444.00
2023-04-24T13:27:55.680Z,100444.63
2023-04-24T13:30:24.856Z,100429.75
2023-04-24T13:32:54.349Z,100436.91
2023-04-24T13:35:23.654Z,100448.31
2023-04-24T13:37:52.595Z,100435.69
2023-04-24T13:40:21.456Z,100442.19
2023-04-24T13:42:50.402Z,100437.72
2023-04-24T13:45:25.384Z,100430.28
2023-04-24T13:47:55.863Z,100435.00
2023-04-24T13:50:25.045Z,100433.63
2023-04-24T13:52:54.118Z,100433.94
2023-04-24T13:55:25.237Z,100430.34
2023-04-24T13:57:56.236Z,100416.06
2023-04-24T14:00:27.670Z,100427.31
2023-04-24T14:02:57.286Z,100418.78
2023-04-24T14:05:27.794Z,100429.41
2023-04-24T14:07:57.586Z,100427.88
2023-04-24T14:10:26.772Z,100425.88
2023-04-24T14:12:56.375Z,100427.34
2023-04-24T14:15:27.308Z,100421.78
2023-04-24T14:17:56.437Z,100427.41
2023-04-24T14:20:26.289Z,100434.47
2023-04-24T14:22:55.890Z,100437.41
2023-04-24T14:25:25.379Z,100437.94
2023-04-24T14:27:54.544Z,100431.81
2023-04-24T14:30:23.300Z,100439.81
2023-04-24T14:32:54.489Z,100437.56
2023-04-24T14:35:28.202Z,100432.78
2023-04-24T14:37:58.088Z,100433.94
2023-04-24T14:40:58.463Z,100437.31
2023-04-24T14:43:17.979Z,100453.09
2023-04-24T14:45:47.317Z,100452.06
2023-04-24T14:48:18.785Z,100454.41
2023-04-24T14:50:48.006Z,100460.00
2023-04-24T14:53:17.917Z,100463.13
2023-04-24T14:55:47.013Z,100466.91
2023-04-24T14:58:16.591Z,100464.72
2023-04-24T15:00:45.799Z,100475.34
2023-04-24T15:03:15.264Z,100468.13
2023-04-24T15:05:46.244Z,100471.50
2023-04-24T15:08:15.092Z,100477.81
2023-04-24T15:10:44.341Z,100484.94
2023-04-24T15:13:14.043Z,100475.19
2023-04-24T15:15:45.264Z,100480.19
2023-04-24T15:18:14.190Z,100490.38
2023-04-24T15:20:44.586Z,100481.91
2023-04-24T15:23:16.172Z,100471.41
2023-04-24T15:25:45.207Z,100471.84
2023-04-24T15:28:14.910Z,100479.44
2023-04-24T15:30:43.877Z,100491.16
2023-04-24T15:33:12.946Z,100494.09
2023-04-24T15:35:42.806Z,100495.66
2023-04-24T15:38:13.304Z,100498.44
2023-04-24T15:40:42.343Z,100501.00
2023-04-24T15:43:12.332Z,100500.84
2023-04-24T15:45:42.574Z,100495.31
2023-04-24T15:48:13.888Z,100504.19
2023-04-24T15:50:45.809Z,100493.59
2023-04-24T15:53:22.306Z,100496.53
2023-04-24T15:55:52.437Z,100500.38
2023-04-24T15:58:22.590Z,100494.31
2023-04-24T16:00:53.852Z,100499.00
2023-04-24T16:03:23.963Z,100497.34
2023-04-24T16:05:54.669Z,100493.41
2023-04-24T16:08:25.021Z,100497.94
2023-04-24T16:10:54.586Z,100487.50
2023-04-24T16:13:23.442Z,100484.50
2023-04-24T16:15:53.324Z,100497.50
2023-04-24T16:18:22.744Z,100490.63
2023-04-24T16:20:52.233Z,100493.47
2023-04-24T16:23:21.395Z,100492.31
2023-04-24T16:25:53.366Z,100489.88
2023-04-24T16:28:23.568Z,100492.81
2023-04-24T16:30:52.727Z,100495.41
2023-04-24T16:33:21.869Z,100503.47
2023-04-24T16:35:50.767Z,100495.69
2023-04-24T16:38:23.428Z,100496.78
2023-04-24T16:40:54.263Z,100497.84
2023-04-24T16:43:23.290Z,100497.81
2023-04-24T16:45:52.693Z,100514.03
2023-04-24T16:48:21.797Z,100510.56
2023-04-24T16:50:51.221Z,100519.09
2023-04-24T16:53:20.164Z,100522.91
2023-04-24T16:55:51.196Z,100515.28
2023-04-24T16:58:22.458Z,100510.97
2023-04-24T17:00:51.804Z,100517.72
2023-04-24T17:03:21.670Z,100526.25
2023-04-24T17:05:50.974Z,100534.09
2023-04-24T17:08:20.500Z,100527.03
2023-04-24T17:10:49.493Z,100528.38
2023-04-24T17:13:18.724Z,100526.34
2023-04-24T17:15:51.198Z,100538.78
2023-04-24T17:18:21.021Z,100535.84
2023-04-24T17:20:51.301Z,100525.78
2023-04-24T17:23:21.886Z,100534.56
2023-04-24T17:25:53.900Z,100530.44
2023-04-24T17:28:27.298Z,100536.13
2023-04-24T17:30:59.148Z,100537.50
2023-04-24T17:33:28.713Z,100535.75
2023-04-24T17:36:00.820Z,100534.25
2023-04-24T17:38:30.358Z,100532.91
2023-04-24T17:41:00.393Z,100542.13
2023-04-24T17:43:29.552Z,100541.97
2023-04-24T17:46:00.322Z,100543.56
2023-04-24T17:48:29.499Z,100547.44
2023-04-24T17:50:58.305Z,100544.19
2023-04-24T17:53:27.480Z,100541.59
2023-04-24T17:55:57.993Z,100540.63
2023-04-24T17:58:29.670Z,100545.06
2023-04-24T18:01:00.253Z,100547.94
2023-04-24T18:03:29.382Z,100550.69
2023-04-24T18:05:58.692Z,100551.97
2023-04-24T18:08:27.882Z,100558.19
2023-04-24T18:10:56.812Z,100547.25
2023-04-24T18:13:25.637Z,100556.03
2023-04-24T18:15:54.829Z,100559.66
2023-04-24T18:18:25.127Z,100550.59
2023-04-24T18:20:54.318Z,100561.00
2023-04-24T18:23:23.245Z,100565.13
2023-04-24T18:25:52.037Z,100556.41
2023-04-24T18:28:21.003Z,100562.31
2023-04-24T18:30:50.246Z,100560.50
2023-04-24T18:33:20.148Z,100560.69
2023-04-24T18:35:51.286Z,100559.13
2023-04-24T18:38:20.541Z,100559.69
2023-04-24T18:40:49.664Z,100559.16
2023-04-24T18:43:23.125Z,100570.34
2023-04-24T18:45:52.118Z,100576.34
2023-04-24T18:48:21.881Z,100575.50
2023-04-24T18:50:52.662Z,100575.06
2023-04-24T18:53:22.772Z,100568.75
2023-04-24T18:55:51.626Z,100582.50
2023-04-24T18:58:20.940Z,100586.53
2023-04-24T19:00:50.281Z,100588.09
2023-04-24T19:03:19.593Z,100591.03
2023-04-24T19:05:49.063Z,100594.63
2023-04-24T19:08:21.804Z,100602.19
2023-04-24T19:10:51.218Z,100600.22
2023-04-24T19:13:20.779Z,100604.66
2023-04-24T19:15:49.513Z,100602.31
2023-04-24T19:18:18.512Z,100613.22
2023-04-24T19:20:47.301Z,100614.53
2023-04-24T19:23:16.312Z,100620.28
2023-04-24T19:25:46.422Z,100612.91
2023-04-24T19:28:15.172Z,100622.78
2023-04-24T19:30:46.457Z,100622.19
2023-04-24T19:33:15.334Z,100622.97
2023-04-24T19:35:44.295Z,100626.06
2023-04-24T19:38:13.454Z,100623.94
2023-04-24T19:40:42.203Z,100630.13
2023-04-24T19:43:12.359Z,100629.31
2023-04-24T19:45:41.473Z,100628.41
2023-04-24T19:48:10.656Z,100634.38
2023-04-24T19:50:39.528Z,100631.63
2023-04-24T19:53:08.710Z,100630.72
2023-04-24T19:55:37.592Z,100620.09
2023-04-24T19:58:06.304Z,100627.94
2023-04-24T20:00:36.432Z,100629.94
2023-04-24T20:03:05.360Z,100631.44
2023-04-24T20:05:34.115Z,100627.88
2023-04-24T20:08:02.918Z,100632.56
2023-04-24T20:10:32.105Z,100633.44
2023-04-24T20:13:01.051Z,100633.97
2023-04-24T20:15:30.198Z,100632.47
2023-04-24T20:18:00.886Z,100633.03
2023-04-24T20:20:29.832Z,100636.31
2023-04-24T20:22:58.491Z,100638.00
2023-04-24T20:25:27.740Z,100641.53
2023-04-24T20:27:56.653Z,100632.97
2023-04-24T20:30:26.470Z,100637.53
2023-04-24T20:32:55.798Z,100636.59
2023-04-24T20:35:26.078Z,100631.97
2023-04-24T20:37:54.765Z,100631.91
2023-04-24T20:40:24.124Z,100633.28
2023-04-24T20:42:52.938Z,100633.53
2023-04-24T20:45:23.353Z,100630.97
2023-04-24T20:47:52.109Z,100631.88
2023-04-24T20:50:21.078Z,100639.41
2023-04-24T20:52:53.756Z,100633.72
2023-04-24T20:55:22.924Z,100636.44
2023-04-24T20:57:52.053Z,100636.25
2023-04-24T21:00:21.212Z,100635.38
2023-04-24T21:02:50.363Z,100627.72
2023-04-24T21:05:19.445Z,100627.31
2023-04-24T21:07:48.638Z,100628.47
2023-04-24T21:10:19.965Z,100629.03
2023-04-24T21:12:48.546Z,100631.41
2023-04-24T21:15:17.474Z,100628.38
2023-04-24T21:17:46.245Z,100622.41
2023-04-24T21:20:15.012Z,100631.41
2023-04-24T21:22:44.010Z,100639.22
2023-04-24T21:25:13.130Z,100637.75
2023-04-24T21:27:43.894Z,100640.56
2023-04-24T21:30:13.726Z,100633.81
2023-04-24T21:32:42.433Z,100634.59
2023-04-24T21:35:11.615Z,100638.97
2023-04-24T21:37:40.353Z,100638.34
2023-04-24T21:40:11.509Z,100635.25
2023-04-24T21:42:41.043Z,100638.34
2023-04-24T21:45:15.115Z,100632.41
2023-04-24T21:47:44.075Z,100637.44
2023-04-24T21:50:13.572Z,100628.03
2023-04-24T21:52:42.505Z,100629.84
2023-04-24T21:55:11.901Z,100632.59
2023-04-24T21:57:41.188Z,100630.66
2023-04-24T22:00:13.842Z,100633.44
2023-04-24T22:02:43.401Z,100634.69
2023-04-24T22:05:18.210Z,100637.38
2023-04-24T22:07:50.594Z,100628.22
2023-04-24T22:10:20.478Z,100629.38
2023-04-24T22:12:50.438Z,100636.03
2023-04-24T22:15:21.046Z,100638.28
2023-04-24T22:17:53.013Z,100629.22
2023-04-24T22:20:23.241Z,100630.72
2023-04-24T22:22:52.702Z,100633.13
2023-04-24T22:25:21.418Z,100631.34
2023-04-24T22:27:50.698Z,100637.47
2023-04-24T22:30:20.897Z,100642.75
2023-04-24T22:32:50.707Z,100642.59
2023-04-24T22:35:20.478Z,100639.72
2023-04-24T22:37:55.323Z,100646.28
2023-04-24T22:40:25.929Z,100636.41
2023-04-24T22:42:55.425Z,100633.91
2023-04-24T22:45:26.282Z,100638.47
2023-04-24T22:47:56.295Z,100632.28
2023-04-24T22:50:25.665Z,100636.06
2023-04-24T22:52:55.298Z,100636.06
2023-04-24T22:55:24.471Z,100631.72
2023-04-24T22:57:53.781Z,100632.44
2023-04-24T23:00:23.475Z,100632.34
2023-04-24T23:02:57.103Z,100634.47
2023-04-24T23:05:28.100Z,100631.13
2023-04-24T23:07:57.114Z,100631.97
2023-04-24T23:10:26.081Z,100631.91
2023-04-24T23:12:55.271Z,100640.38
2023-04-24T23:15:24.455Z,100641.97
2023-04-24T23:17:55.010Z,100642.72
2023-04-24T23:20:24.014Z,100641.41
2023-04-24T23:22:52.900Z,100639.47
2023-04-24T23:25:21.861Z,100639.13
2023-04-24T23:27:51.122Z,100640.09
2023-04-24T23:30:20.287Z,100639.63
2023-04-24T23:32:49.080Z,100639.13
2023-04-24T23:35:19.707Z,100635.25
2023-04-24T23:37:49.338Z,100641.22
2023-04-24T23:40:18.120Z,100637.06
2023-04-24T23:42:53.958Z,100641.63
2023-04-24T23:45:26.197Z,100638.63
2023-04-24T23:47:55.567Z,100640.91
2023-04-24T23:50:26.111Z,100644.19
2023-04-24T23:52:55.269Z,100641.06
2023-04-24T23:55:24.233Z,100639.69
2023-04-24T23:57:53.242Z,100637.09
